logo
Search for airport 
image banner adimage banner adimage banner ad
image banner ad

ED2152 - Oppenau

Located in , Germany

ICAO - , IATA -

Data provided by Airmate  

General information

Coordinates: N48°29'16" E8°14'20"
Elevation is 3015 feet MSL.
 
View others Airports in Baden-Württemberg

Operational data

Special qualification required
Current time UTC:
Current local time:
Weather at : EDTL - Lahr ( 33 km )
METAR: EDTL 141650Z AUTO 14003KT 9999 // OVC140/// 23/15 Q1013
TAF: TAF EDTL 141400Z 1415/1424 VRB03KT CAVOK
View NOTAMs / SUP AIP / TFR affecting this airport [VIEW]
Communications frequencies: [VIEW]

Runways:

Airport contact information

Address: Germany

Satellite view of ED2152